sensor_id;sensor_type;location;lat;lon;timestamp;pressure;altitude;pressure_sealevel;temperature;humidity
36092;BME280;22147;52.388;13.390;2023-05-14T00:00:42;101479.34;;;9.73;100.00
36092;BME280;22147;52.388;13.390;2023-05-14T00:03:12;101472.75;;;9.69;100.00
36092;BME280;22147;52.388;13.390;2023-05-14T00:05:42;101473.91;;;9.68;100.00
36092;BME280;22147;52.388;13.390;2023-05-14T00:08:13;101473.16;;;9.62;100.00
36092;BME280;22147;52.388;13.390;2023-05-14T00:10:43;101472.94;;;9.58;100.00
36092;BME280;22147;52.388;13.390;2023-05-14T00:13:13;101472.22;;;9.53;100.00
36092;BME280;22147;52.388;13.390;2023-05-14T00:15:43;101473.13;;;9.48;100.00
36092;BME280;22147;52.388;13.390;2023-05-14T00:18:14;101465.41;;;9.45;100.00
36092;BME280;22147;52.388;13.390;2023-05-14T00:20:44;101466.84;;;9.43;100.00
36092;BME280;22147;52.388;13.390;2023-05-14T00:23:16;101466.59;;;9.39;100.00
36092;BME280;22147;52.388;13.390;2023-05-14T00:25:46;101457.78;;;9.37;100.00
36092;BME280;22147;52.388;13.390;2023-05-14T00:28:16;101462.50;;;9.36;100.00
36092;BME280;22147;52.388;13.390;2023-05-14T00:30:47;101458.91;;;9.36;100.00
36092;BME280;22147;52.388;13.390;2023-05-14T00:33:17;101450.28;;;9.37;100.00
36092;BME280;22147;52.388;13.390;2023-05-14T00:35:48;101453.03;;;9.37;100.00
36092;BME280;22147;52.388;13.390;2023-05-14T00:38:18;101454.69;;;9.38;100.00
36092;BME280;22147;52.388;13.390;2023-05-14T00:40:49;101450.78;;;9.40;100.00
36092;BME280;22147;52.388;13.390;2023-05-14T00:43:22;101447.72;;;9.41;100.00
36092;BME280;22147;52.388;13.390;2023-05-14T00:45:54;101450.50;;;9.41;100.00
36092;BME280;22147;52.388;13.390;2023-05-14T00:48:24;101447.44;;;9.43;100.00
36092;BME280;22147;52.388;13.390;2023-05-14T00:50:55;101451.84;;;9.44;100.00
36092;BME280;22147;52.388;13.390;2023-05-14T00:53:27;101435.72;;;9.46;100.00
36092;BME280;22147;52.388;13.390;2023-05-14T00:55:57;101445.69;;;9.47;100.00
36092;BME280;22147;52.388;13.390;2023-05-14T00:58:27;101443.75;;;9.47;100.00
36092;BME280;22147;52.388;13.390;2023-05-14T01:00:59;101442.09;;;9.46;100.00
36092;BME280;22147;52.388;13.390;2023-05-14T01:03:30;101435.53;;;9.42;100.00
36092;BME280;22147;52.388;13.390;2023-05-14T01:12:28;101444.91;;;9.27;100.00
36092;BME280;22147;52.388;13.390;2023-05-14T01:15:22;101436.16;;;9.20;100.00
36092;BME280;22147;52.388;13.390;2023-05-14T01:18:04;101438.72;;;9.16;100.00
36092;BME280;22147;52.388;13.390;2023-05-14T01:20:37;101432.41;;;9.11;100.00
36092;BME280;22147;52.388;13.390;2023-05-14T01:23:07;101434.44;;;9.05;100.00
36092;BME280;22147;52.388;13.390;2023-05-14T01:25:37;101434.22;;;9.02;100.00
36092;BME280;22147;52.388;13.390;2023-05-14T01:28:28;101428.47;;;8.98;100.00
36092;BME280;22147;52.388;13.390;2023-05-14T01:31:16;101431.81;;;8.95;100.00
36092;BME280;22147;52.388;13.390;2023-05-14T01:33:58;101435.19;;;8.92;100.00
36092;BME280;22147;52.388;13.390;2023-05-14T01:36:30;101430.25;;;8.89;100.00
36092;BME280;22147;52.388;13.390;2023-05-14T01:39:02;101425.31;;;8.86;100.00
36092;BME280;22147;52.388;13.390;2023-05-14T01:41:32;101431.47;;;8.83;100.00
36092;BME280;22147;52.388;13.390;2023-05-14T01:44:03;101425.97;;;8.77;100.00
36092;BME280;22147;52.388;13.390;2023-05-14T01:46:34;101419.91;;;8.75;100.00
36092;BME280;22147;52.388;13.390;2023-05-14T01:49:04;101421.34;;;8.73;100.00
36092;BME280;22147;52.388;13.390;2023-05-14T01:51:35;101422.44;;;8.72;100.00
36092;BME280;22147;52.388;13.390;2023-05-14T01:54:06;101423.59;;;8.71;100.00
36092;BME280;22147;52.388;13.390;2023-05-14T01:56:36;101420.53;;;8.72;100.00
36092;BME280;22147;52.388;13.390;2023-05-14T01:59:07;101418.28;;;8.74;100.00
36092;BME280;22147;52.388;13.390;2023-05-14T02:01:37;101422.63;;;8.81;100.00
36092;BME280;22147;52.388;13.390;2023-05-14T02:04:07;101422.00;;;8.84;100.00
36092;BME280;22147;52.388;13.390;2023-05-14T02:06:37;101418.34;;;8.88;100.00
36092;BME280;22147;52.388;13.390;2023-05-14T02:09:08;101417.44;;;8.93;100.00
36092;BME280;22147;52.388;13.390;2023-05-14T02:11:38;101414.09;;;8.96;100.00
36092;BME280;22147;52.388;13.390;2023-05-14T02:14:08;101409.28;;;9.02;100.00
36092;BME280;22147;52.388;13.390;2023-05-14T02:16:38;101408.91;;;9.08;100.00
36092;BME280;22147;52.388;13.390;2023-05-14T02:19:09;101407.19;;;9.12;100.00
36092;BME280;22147;52.388;13.390;2023-05-14T02:21:40;101409.34;;;9.15;100.00
36092;BME280;22147;52.388;13.390;2023-05-14T02:24:10;101419.84;;;9.19;100.00
36092;BME280;22147;52.388;13.390;2023-05-14T02:26:40;101417.06;;;9.19;100.00
36092;BME280;22147;52.388;13.390;2023-05-14T02:29:11;101407.63;;;9.20;100.00
36092;BME280;22147;52.388;13.390;2023-05-14T02:31:41;101400.94;;;9.21;100.00
36092;BME280;22147;52.388;13.390;2023-05-14T02:34:12;101409.25;;;9.21;100.00
36092;BME280;22147;52.388;13.390;2023-05-14T02:36:42;101403.69;;;9.21;100.00
36092;BME280;22147;52.388;13.390;2023-05-14T02:39:12;101402.88;;;9.20;100.00
36092;BME280;22147;52.388;13.390;2023-05-14T02:41:43;101410.09;;;9.21;100.00
36092;BME280;22147;52.388;13.390;2023-05-14T02:44:13;101406.47;;;9.21;100.00
36092;BME280;22147;52.388;13.390;2023-05-14T02:46:43;101406.47;;;9.21;100.00
36092;BME280;22147;52.388;13.390;2023-05-14T02:49:13;101407.31;;;9.21;100.00
36092;BME280;22147;52.388;13.390;2023-05-14T02:51:44;101407.84;;;9.23;100.00
36092;BME280;22147;52.388;13.390;2023-05-14T02:54:14;101412.25;;;9.24;100.00
36092;BME280;22147;52.388;13.390;2023-05-14T02:56:45;101407.22;;;9.26;100.00
36092;BME280;22147;52.388;13.390;2023-05-14T02:59:16;101400.25;;;9.29;100.00
36092;BME280;22147;52.388;13.390;2023-05-14T03:01:46;101409.94;;;9.31;100.00
36092;BME280;22147;52.388;13.390;2023-05-14T03:04:17;101408.50;;;9.34;100.00
36092;BME280;22147;52.388;13.390;2023-05-14T03:06:47;101407.56;;;9.38;100.00
36092;BME280;22147;52.388;13.390;2023-05-14T03:09:17;101407.78;;;9.42;100.00
36092;BME280;22147;52.388;13.390;2023-05-14T03:11:49;101406.59;;;9.48;100.00
36092;BME280;22147;52.388;13.390;2023-05-14T03:14:19;101409.88;;;9.50;100.00
36092;BME280;22147;52.388;13.390;2023-05-14T03:16:49;101409.25;;;9.53;100.00
36092;BME280;22147;52.388;13.390;2023-05-14T03:19:20;101407.81;;;9.56;100.00
36092;BME280;22147;52.388;13.390;2023-05-14T03:21:50;101406.09;;;9.60;100.00
36092;BME280;22147;52.388;13.390;2023-05-14T03:24:20;101409.91;;;9.64;100.00
36092;BME280;22147;52.388;13.390;2023-05-14T03:26:50;101411.44;;;9.70;100.00
36092;BME280;22147;52.388;13.390;2023-05-14T03:29:20;101414.97;;;9.76;100.00
36092;BME280;22147;52.388;13.390;2023-05-14T03:31:51;101414.25;;;9.84;100.00
36092;BME280;22147;52.388;13.390;2023-05-14T03:34:22;101409.94;;;9.92;100.00
36092;BME280;22147;52.388;13.390;2023-05-14T03:36:50;101411.47;;;9.98;100.00
36092;BME280;22147;52.388;13.390;2023-05-14T03:39:18;101415.81;;;10.04;100.00
36092;BME280;22147;52.388;13.390;2023-05-14T03:41:47;101411.28;;;10.08;100.00
36092;BME280;22147;52.388;13.390;2023-05-14T03:44:15;101411.69;;;10.15;100.00
36092;BME280;22147;52.388;13.390;2023-05-14T03:46:43;101410.97;;;10.24;100.00
36092;BME280;22147;52.388;13.390;2023-05-14T03:49:12;101406.97;;;10.30;100.00
36092;BME280;22147;52.388;13.390;2023-05-14T03:51:40;101403.28;;;10.34;100.00
36092;BME280;22147;52.388;13.390;2023-05-14T03:54:10;101405.75;;;10.36;100.00
36092;BME280;22147;52.388;13.390;2023-05-14T03:56:41;101412.75;;;10.33;100.00
36092;BME280;22147;52.388;13.390;2023-05-14T03:59:11;101404.47;;;10.28;100.00
36092;BME280;22147;52.388;13.390;2023-05-14T04:01:39;101409.50;;;10.26;100.00
36092;BME280;22147;52.388;13.390;2023-05-14T04:04:08;101406.03;;;10.21;100.00
36092;BME280;22147;52.388;13.390;2023-05-14T04:06:37;101409.75;;;10.16;100.00
36092;BME280;22147;52.388;13.390;2023-05-14T04:09:05;101405.63;;;10.13;100.00
36092;BME280;22147;52.388;13.390;2023-05-14T04:11:36;101414.06;;;10.08;100.00
36092;BME280;22147;52.388;13.390;2023-05-14T04:14:04;101412.22;;;10.04;100.00
36092;BME280;22147;52.388;13.390;2023-05-14T04:16:34;101401.19;;;9.98;100.00
36092;BME280;22147;52.388;13.390;2023-05-14T04:19:05;101397.72;;;9.93;100.00
36092;BME280;22147;52.388;13.390;2023-05-14T04:21:35;101398.84;;;9.92;100.00
36092;BME280;22147;52.388;13.390;2023-05-14T04:24:06;101402.75;;;9.91;100.00
36092;BME280;22147;52.388;13.390;2023-05-14T04:26:36;101398.22;;;9.95;100.00
36092;BME280;22147;52.388;13.390;2023-05-14T04:29:06;101396.50;;;9.99;100.00
36092;BME280;22147;52.388;13.390;2023-05-14T04:31:35;101395.22;;;10.05;100.00
36092;BME280;22147;52.388;13.390;2023-05-14T04:34:03;101392.06;;;10.12;100.00
36092;BME280;22147;52.388;13.390;2023-05-14T04:36:32;101386.41;;;10.17;100.00
36092;BME280;22147;52.388;13.390;2023-05-14T04:39:00;101382.38;;;10.23;100.00
36092;BME280;22147;52.388;13.390;2023-05-14T04:41:29;101383.66;;;10.31;100.00
36092;BME280;22147;52.388;13.390;2023-05-14T04:43:59;101381.47;;;10.42;100.00
36092;BME280;22147;52.388;13.390;2023-05-14T04:46:33;101385.97;;;10.51;100.00
36092;BME280;22147;52.388;13.390;2023-05-14T04:49:03;101387.41;;;10.63;100.00
36092;BME280;22147;52.388;13.390;2023-05-14T04:51:33;101385.09;;;10.78;100.00
36092;BME280;22147;52.388;13.390;2023-05-14T04:54:03;101382.56;;;10.91;100.00
36092;BME280;22147;52.388;13.390;2023-05-14T04:56:34;101385.63;;;11.03;100.00
36092;BME280;22147;52.388;13.390;2023-05-14T04:59:04;101391.75;;;11.14;100.00
36092;BME280;22147;52.388;13.390;2023-05-14T05:01:35;101384.78;;;11.25;100.00
36092;BME280;22147;52.388;13.390;2023-05-14T05:04:05;101376.38;;;11.39;100.00
36092;BME280;22147;52.388;13.390;2023-05-14T05:06:36;101383.75;;;11.44;100.00
36092;BME280;22147;52.388;13.390;2023-05-14T05:09:06;101375.63;;;11.47;100.00
36092;BME280;22147;52.388;13.390;2023-05-14T05:11:38;101382.16;;;11.51;100.00
36092;BME280;22147;52.388;13.390;2023-05-14T05:14:08;101378.41;;;11.47;100.00
36092;BME280;22147;52.388;13.390;2023-05-14T05:16:38;101375.13;;;11.45;99.78
36092;BME280;22147;52.388;13.390;2023-05-14T05:19:09;101389.03;;;11.45;99.36
36092;BME280;22147;52.388;13.390;2023-05-14T05:21:40;101380.19;;;11.43;100.00
36092;BME280;22147;52.388;13.390;2023-05-14T05:24:10;101378.50;;;11.42;100.00
36092;BME280;22147;52.388;13.390;2023-05-14T05:26:42;101377.69;;;11.41;100.00
36092;BME280;22147;52.388;13.390;2023-05-14T05:29:12;101377.06;;;11.45;100.00
36092;BME280;22147;52.388;13.390;2023-05-14T05:31:43;101375.47;;;11.52;100.00
36092;BME280;22147;52.388;13.390;2023-05-14T05:34:13;101371.09;;;11.60;100.00
36092;BME280;22147;52.388;13.390;2023-05-14T05:36:44;101367.84;;;11.67;100.00
36092;BME280;22147;52.388;13.390;2023-05-14T05:39:14;101367.72;;;11.72;100.00
36092;BME280;22147;52.388;13.390;2023-05-14T05:41:44;101365.81;;;11.81;99.77
36092;BME280;22147;52.388;13.390;2023-05-14T05:44:15;101369.41;;;11.81;97.47
36092;BME280;22147;52.388;13.390;2023-05-14T05:46:45;101363.41;;;11.88;98.34
36092;BME280;22147;52.388;13.390;2023-05-14T05:49:15;101363.41;;;11.88;96.85
36092;BME280;22147;52.388;13.390;2023-05-14T05:51:46;101355.88;;;11.97;96.08
36092;BME280;22147;52.388;13.390;2023-05-14T05:54:16;101362.31;;;12.07;96.03
36092;BME280;22147;52.388;13.390;2023-05-14T05:56:46;101363.34;;;12.19;95.79
36092;BME280;22147;52.388;13.390;2023-05-14T05:59:16;101353.22;;;12.32;94.22
36092;BME280;22147;52.388;13.390;2023-05-14T06:01:46;101360.91;;;12.44;92.16
36092;BME280;22147;52.388;13.390;2023-05-14T06:04:16;101362.91;;;12.52;93.63
36092;BME280;22147;52.388;13.390;2023-05-14T06:06:47;101364.88;;;12.69;92.44
36092;BME280;22147;52.388;13.390;2023-05-14T06:09:17;101364.25;;;12.81;91.39
36092;BME280;22147;52.388;13.390;2023-05-14T06:11:47;101364.03;;;13.03;90.67
36092;BME280;22147;52.388;13.390;2023-05-14T06:14:17;101360.59;;;13.15;88.73
36092;BME280;22147;52.388;13.390;2023-05-14T06:16:47;101364.88;;;13.30;87.07
36092;BME280;22147;52.388;13.390;2023-05-14T06:19:18;101358.63;;;13.42;88.25
36092;BME280;22147;52.388;13.390;2023-05-14T06:21:48;101362.88;;;13.39;87.15
36092;BME280;22147;52.388;13.390;2023-05-14T06:24:18;101361.72;;;13.49;88.96
36092;BME280;22147;52.388;13.390;2023-05-14T06:26:49;101358.06;;;13.57;86.30
36092;BME280;22147;52.388;13.390;2023-05-14T06:29:19;101365.16;;;13.46;87.25
36092;BME280;22147;52.388;13.390;2023-05-14T06:31:49;101359.44;;;13.42;88.39
36092;BME280;22147;52.388;13.390;2023-05-14T06:34:19;101360.72;;;13.54;90.08
36092;BME280;22147;52.388;13.390;2023-05-14T06:36:49;101361.69;;;13.58;87.19
36092;BME280;22147;52.388;13.390;2023-05-14T06:39:20;101361.31;;;13.68;89.27
36092;BME280;22147;52.388;13.390;2023-05-14T06:41:50;101364.72;;;13.82;89.08
36092;BME280;22147;52.388;13.390;2023-05-14T06:44:20;101363.88;;;13.82;87.83
36092;BME280;22147;52.388;13.390;2023-05-14T06:46:50;101364.81;;;13.95;89.60
36092;BME280;22147;52.388;13.390;2023-05-14T06:49:20;101363.72;;;13.87;87.46
36092;BME280;22147;52.388;13.390;2023-05-14T06:51:50;101364.38;;;13.84;86.65
36092;BME280;22147;52.388;13.390;2023-05-14T06:54:21;101366.66;;;13.91;84.67
36092;BME280;22147;52.388;13.390;2023-05-14T06:56:51;101372.31;;;14.03;82.86
36092;BME280;22147;52.388;13.390;2023-05-14T06:59:21;101373.28;;;14.07;82.88
36092;BME280;22147;52.388;13.390;2023-05-14T07:01:52;101369.47;;;14.20;80.88
36092;BME280;22147;52.388;13.390;2023-05-14T07:04:22;101372.31;;;14.41;82.80
36092;BME280;22147;52.388;13.390;2023-05-14T07:06:52;101365.03;;;14.70;79.42
36092;BME280;22147;52.388;13.390;2023-05-14T07:09:21;101356.88;;;14.65;76.24
36092;BME280;22147;52.388;13.390;2023-05-14T07:11:49;101359.53;;;14.61;75.69
36092;BME280;22147;52.388;13.390;2023-05-14T07:14:17;101358.34;;;14.62;76.25
36092;BME280;22147;52.388;13.390;2023-05-14T07:16:46;101357.28;;;14.76;76.58
36092;BME280;22147;52.388;13.390;2023-05-14T07:19:14;101359.19;;;14.84;74.77
36092;BME280;22147;52.388;13.390;2023-05-14T07:21:43;101346.41;;;14.95;75.72
36092;BME280;22147;52.388;13.390;2023-05-14T07:24:11;101355.59;;;15.17;74.52
36092;BME280;22147;52.388;13.390;2023-05-14T07:26:39;101353.50;;;15.26;73.77
36092;BME280;22147;52.388;13.390;2023-05-14T07:29:08;101352.03;;;15.29;76.00
36092;BME280;22147;52.388;13.390;2023-05-14T07:31:36;101351.84;;;15.46;74.63
36092;BME280;22147;52.388;13.390;2023-05-14T07:34:05;101344.47;;;15.75;74.91
36092;BME280;22147;52.388;13.390;2023-05-14T07:36:33;101344.78;;;15.98;71.17
36092;BME280;22147;52.388;13.390;2023-05-14T07:39:02;101343.19;;;15.97;71.56
36092;BME280;22147;52.388;13.390;2023-05-14T07:41:30;101334.19;;;16.16;72.25
36092;BME280;22147;52.388;13.390;2023-05-14T07:43:58;101339.16;;;16.47;70.34
36092;BME280;22147;52.388;13.390;2023-05-14T07:46:27;101330.38;;;16.48;70.74
36092;BME280;22147;52.388;13.390;2023-05-14T07:48:56;101325.63;;;16.77;69.87
36092;BME280;22147;52.388;13.390;2023-05-14T07:51:25;101331.19;;;17.02;68.47
36092;BME280;22147;52.388;13.390;2023-05-14T07:53:57;101330.00;;;17.03;66.39
36092;BME280;22147;52.388;13.390;2023-05-14T07:56:27;101322.38;;;16.87;64.61
36092;BME280;22147;52.388;13.390;2023-05-14T07:58:57;101317.63;;;17.04;67.11
36092;BME280;22147;52.388;13.390;2023-05-14T08:01:27;101324.03;;;17.48;64.15
36092;BME280;22147;52.388;13.390;2023-05-14T08:03:57;101316.56;;;17.84;62.33
36092;BME280;22147;52.388;13.390;2023-05-14T08:06:27;101317.44;;;17.88;60.02
36092;BME280;22147;52.388;13.390;2023-05-14T08:08:58;101310.19;;;18.03;63.39
36092;BME280;22147;52.388;13.390;2023-05-14T08:11:28;101310.84;;;18.32;61.31
36092;BME280;22147;52.388;13.390;2023-05-14T08:13:58;101323.56;;;18.81;58.14
36092;BME280;22147;52.388;13.390;2023-05-14T08:16:29;101311.25;;;19.08;55.71
36092;BME280;22147;52.388;13.390;2023-05-14T08:18:59;101315.44;;;19.38;57.49
36092;BME280;22147;52.388;13.390;2023-05-14T08:25:54;101305.56;;;19.47;54.28
36092;BME280;22147;52.388;13.390;2023-05-14T08:28:25;101305.81;;;19.85;53.32
36092;BME280;22147;52.388;13.390;2023-05-14T08:30:55;101304.25;;;20.41;50.78
36092;BME280;22147;52.388;13.390;2023-05-14T08:37:53;101288.84;;;19.81;46.74
36092;BME280;22147;52.388;13.390;2023-05-14T08:40:25;101285.91;;;19.74;49.05
36092;BME280;22147;52.388;13.390;2023-05-14T08:43:01;101291.50;;;19.97;51.47
36092;BME280;22147;52.388;13.390;2023-05-14T08:45:34;101297.63;;;20.29;47.68
36092;BME280;22147;52.388;13.390;2023-05-14T08:48:12;101290.84;;;20.34;47.09
36092;BME280;22147;52.388;13.390;2023-05-14T09:08:41;101260.31;;;21.07;43.23
36092;BME280;22147;52.388;13.390;2023-05-14T09:11:18;101258.34;;;21.11;41.86
36092;BME280;22147;52.388;13.390;2023-05-14T09:13:49;101254.84;;;21.25;42.71
36092;BME280;22147;52.388;13.390;2023-05-14T09:16:26;101252.63;;;21.08;41.85
36092;BME280;22147;52.388;13.390;2023-05-14T09:18:57;101250.38;;;21.24;42.23
36092;BME280;22147;52.388;13.390;2023-05-14T09:21:28;101242.63;;;21.55;42.37
36092;BME280;22147;52.388;13.390;2023-05-14T09:24:02;101237.06;;;21.66;42.24
36092;BME280;22147;52.388;13.390;2023-05-14T09:26:34;101237.16;;;21.77;42.84
36092;BME280;22147;52.388;13.390;2023-05-14T09:29:04;101236.47;;;21.42;39.89
36092;BME280;22147;52.388;13.390;2023-05-14T09:36:00;101224.59;;;21.26;40.71
36092;BME280;22147;52.388;13.390;2023-05-14T09:38:32;101223.44;;;21.79;42.48
36092;BME280;22147;52.388;13.390;2023-05-14T09:41:02;101230.03;;;22.01;41.59
36092;BME280;22147;52.388;13.390;2023-05-14T09:43:32;101220.03;;;22.14;40.23
36092;BME280;22147;52.388;13.390;2023-05-14T09:46:02;101217.38;;;22.46;42.07
36092;BME280;22147;52.388;13.390;2023-05-14T09:48:33;101204.38;;;22.31;39.21
36092;BME280;22147;52.388;13.390;2023-05-14T09:51:03;101207.75;;;21.92;38.86
36092;BME280;22147;52.388;13.390;2023-05-14T09:53:34;101208.94;;;21.87;39.74
36092;BME280;22147;52.388;13.390;2023-05-14T09:56:04;101202.81;;;21.26;38.79
36092;BME280;22147;52.388;13.390;2023-05-14T09:58:35;101196.66;;;20.72;40.08
36092;BME280;22147;52.388;13.390;2023-05-14T10:01:18;101204.69;;;20.70;41.01
36092;BME280;22147;52.388;13.390;2023-05-14T10:04:22;101185.78;;;20.10;40.67
36092;BME280;22147;52.388;13.390;2023-05-14T10:06:56;101189.22;;;19.97;41.75
36092;BME280;22147;52.388;13.390;2023-05-14T10:09:28;101188.03;;;19.98;43.49
36092;BME280;22147;52.388;13.390;2023-05-14T10:12:21;101182.22;;;19.87;42.66
36092;BME280;22147;52.388;13.390;2023-05-14T10:14:56;101185.88;;;19.38;42.23
36092;BME280;22147;52.388;13.390;2023-05-14T10:17:37;101181.59;;;19.21;41.24
36092;BME280;22147;52.388;13.390;2023-05-14T10:20:14;101173.78;;;19.10;42.48
36092;BME280;22147;52.388;13.390;2023-05-14T10:22:46;101172.78;;;18.99;43.31
36092;BME280;22147;52.388;13.390;2023-05-14T10:25:15;101175.41;;;18.88;43.35
36092;BME280;22147;52.388;13.390;2023-05-14T10:27:46;101169.47;;;18.74;43.90
36092;BME280;22147;52.388;13.390;2023-05-14T10:30:21;101169.78;;;18.69;45.52
36092;BME280;22147;52.388;13.390;2023-05-14T10:33:13;101158.38;;;18.62;46.68
36092;BME280;22147;52.388;13.390;2023-05-14T10:36:04;101163.38;;;18.49;47.04
36092;BME280;22147;52.388;13.390;2023-05-14T10:38:37;101150.78;;;18.43;44.95
36092;BME280;22147;52.388;13.390;2023-05-14T10:41:14;101150.72;;;18.39;46.40
36092;BME280;22147;52.388;13.390;2023-05-14T10:43:50;101160.13;;;18.27;44.41
36092;BME280;22147;52.388;13.390;2023-05-14T10:46:18;101151.97;;;18.22;45.02
36092;BME280;22147;52.388;13.390;2023-05-14T10:48:48;101150.91;;;18.27;44.48
36092;BME280;22147;52.388;13.390;2023-05-14T10:51:20;101147.91;;;18.20;45.21
36092;BME280;22147;52.388;13.390;2023-05-14T10:53:51;101153.75;;;18.30;46.05
36092;BME280;22147;52.388;13.390;2023-05-14T10:56:22;101148.97;;;18.31;45.51
36092;BME280;22147;52.388;13.390;2023-05-14T10:58:57;101139.34;;;18.32;44.91
36092;BME280;22147;52.388;13.390;2023-05-14T11:01:28;101143.47;;;18.38;44.02
36092;BME280;22147;52.388;13.390;2023-05-14T11:04:02;101137.78;;;18.35;44.71
36092;BME280;22147;52.388;13.390;2023-05-14T11:06:31;101144.38;;;18.42;46.48
36092;BME280;22147;52.388;13.390;2023-05-14T11:09:01;101134.91;;;18.31;45.73
36092;BME280;22147;52.388;13.390;2023-05-14T11:11:32;101141.25;;;18.28;46.75
36092;BME280;22147;52.388;13.390;2023-05-14T11:14:03;101135.34;;;18.14;46.54
36092;BME280;22147;52.388;13.390;2023-05-14T11:16:33;101130.47;;;18.10;46.91
36092;BME280;22147;52.388;13.390;2023-05-14T11:19:04;101133.28;;;18.10;45.78
36092;BME280;22147;52.388;13.390;2023-05-14T11:21:34;101129.22;;;18.08;46.39
36092;BME280;22147;52.388;13.390;2023-05-14T11:24:05;101121.75;;;18.16;46.11
36092;BME280;22147;52.388;13.390;2023-05-14T11:26:34;101112.44;;;18.31;48.04
36092;BME280;22147;52.388;13.390;2023-05-14T11:29:04;101111.94;;;18.48;46.36
36092;BME280;22147;52.388;13.390;2023-05-14T11:31:34;101110.06;;;18.99;48.08
36092;BME280;22147;52.388;13.390;2023-05-14T11:34:06;101109.72;;;19.57;45.27
36092;BME280;22147;52.388;13.390;2023-05-14T11:36:36;101101.25;;;20.14;44.04
36092;BME280;22147;52.388;13.390;2023-05-14T11:39:06;101103.16;;;20.06;41.03
36092;BME280;22147;52.388;13.390;2023-05-14T11:41:43;101090.81;;;19.58;43.31
36092;BME280;22147;52.388;13.390;2023-05-14T11:44:12;101085.91;;;19.78;43.46
36092;BME280;22147;52.388;13.390;2023-05-14T11:46:57;101085.53;;;19.79;44.32
36092;BME280;22147;52.388;13.390;2023-05-14T11:49:28;101088.06;;;19.88;43.20
36092;BME280;22147;52.388;13.390;2023-05-14T11:52:03;101077.66;;;19.92;43.13
36092;BME280;22147;52.388;13.390;2023-05-14T11:54:35;101085.69;;;19.93;45.66
36092;BME280;22147;52.388;13.390;2023-05-14T11:57:11;101076.81;;;19.91;44.55
36092;BME280;22147;52.388;13.390;2023-05-14T11:59:45;101070.16;;;19.73;44.77
36092;BME280;22147;52.388;13.390;2023-05-14T12:02:17;101068.91;;;19.44;46.22
36092;BME280;22147;52.388;13.390;2023-05-14T12:04:50;101067.63;;;19.38;48.35
36092;BME280;22147;52.388;13.390;2023-05-14T12:07:22;101065.94;;;19.33;48.16
36092;BME280;22147;52.388;13.390;2023-05-14T12:09:50;101069.91;;;19.28;48.80
36092;BME280;22147;52.388;13.390;2023-05-14T12:12:22;101062.47;;;19.17;49.31
36092;BME280;22147;52.388;13.390;2023-05-14T12:14:50;101064.97;;;19.22;49.03
36092;BME280;22147;52.388;13.390;2023-05-14T12:17:22;101068.88;;;19.14;48.45
36092;BME280;22147;52.388;13.390;2023-05-14T12:19:52;101068.19;;;19.20;49.19
36092;BME280;22147;52.388;13.390;2023-05-14T12:22:22;101053.03;;;19.28;50.14
36092;BME280;22147;52.388;13.390;2023-05-14T12:24:58;101056.59;;;19.56;49.65
36092;BME280;22147;52.388;13.390;2023-05-14T12:27:29;101060.97;;;19.80;48.57
36092;BME280;22147;52.388;13.390;2023-05-14T12:30:03;101054.09;;;20.11;48.07
36092;BME280;22147;52.388;13.390;2023-05-14T12:32:38;101046.34;;;20.01;45.11
36092;BME280;22147;52.388;13.390;2023-05-14T12:35:11;101045.66;;;20.14;46.28
36092;BME280;22147;52.388;13.390;2023-05-14T12:37:41;101049.44;;;20.29;44.31
36092;BME280;22147;52.388;13.390;2023-05-14T12:40:12;101044.66;;;20.30;43.28
36092;BME280;22147;52.388;13.390;2023-05-14T12:42:42;101037.13;;;20.45;43.91
36092;BME280;22147;52.388;13.390;2023-05-14T12:45:12;101036.28;;;20.41;42.66
36092;BME280;22147;52.388;13.390;2023-05-14T12:47:43;101036.34;;;20.48;41.38
36092;BME280;22147;52.388;13.390;2023-05-14T12:50:13;101036.94;;;20.27;39.54
36092;BME280;22147;52.388;13.390;2023-05-14T12:52:43;101030.41;;;20.19;40.77
36092;BME280;22147;52.388;13.390;2023-05-14T12:55:15;101030.78;;;20.14;41.73
36092;BME280;22147;52.388;13.390;2023-05-14T12:57:45;101023.53;;;20.17;41.95
36092;BME280;22147;52.388;13.390;2023-05-14T13:00:16;101026.63;;;20.04;40.24
36092;BME280;22147;52.388;13.390;2023-05-14T13:02:47;101025.72;;;19.63;39.57
36092;BME280;22147;52.388;13.390;2023-05-14T13:05:17;101031.88;;;19.72;40.81
36092;BME280;22147;52.388;13.390;2023-05-14T13:07:47;101021.91;;;19.78;41.14
36092;BME280;22147;52.388;13.390;2023-05-14T13:10:19;101015.97;;;19.87;41.82
36092;BME280;22147;52.388;13.390;2023-05-14T13:12:49;101019.91;;;19.79;40.44
36092;BME280;22147;52.388;13.390;2023-05-14T13:15:24;101014.63;;;19.73;40.04
36092;BME280;22147;52.388;13.390;2023-05-14T13:17:55;101011.78;;;19.73;40.85
36092;BME280;22147;52.388;13.390;2023-05-14T13:20:25;101004.47;;;19.69;41.84
36092;BME280;22147;52.388;13.390;2023-05-14T13:22:53;101004.94;;;19.75;42.60
36092;BME280;22147;52.388;13.390;2023-05-14T13:25:22;101008.69;;;19.82;41.29
36092;BME280;22147;52.388;13.390;2023-05-14T13:27:51;100994.00;;;20.03;43.78
36092;BME280;22147;52.388;13.390;2023-05-14T13:30:20;100997.44;;;19.86;41.41
36092;BME280;22147;52.388;13.390;2023-05-14T13:32:48;100994.44;;;20.05;42.79
36092;BME280;22147;52.388;13.390;2023-05-14T13:35:17;100991.25;;;20.10;40.15